Time;durP1;ratioP1;P1;durP2;ratioP2;P2;SDS_P1;SDS_P2;PMS_P1;PMS_P2;Temp;Humidity;BMP_temperature;BMP_pressure;BME280_temperature;BME280_humidity;BME280_pressure;Samples;Min_cycle;Max_cycle;Signal;HPM_P1;HPM_P2
2023/12/31 00:02:04;;;;;;;2.88;1.20;;;;;;;;;;5042810;28;20064;-76
2023/12/31 00:04:29;;;;;;;1.48;1.10;;;;;;;;;;5042314;28;20041;-76
2023/12/31 00:06:55;;;;;;;2.33;1.30;;;;;;;;;;5042736;28;20040;-76
2023/12/31 00:09:20;;;;;;;4.85;1.70;;;;;;;;;;5041524;28;20075;-76
2023/12/31 00:11:46;;;;;;;2.28;1.15;;;;;;;;;;5043163;28;20087;-76
2023/12/31 00:14:11;;;;;;;2.03;1.10;;;;;;;;;;5046938;28;20044;-76
2023/12/31 00:16:36;;;;;;;2.08;1.17;;;;;;;;;;5046363;28;20043;-76
2023/12/31 00:19:02;;;;;;;3.17;1.45;;;;;;;;;;5047366;28;20132;-76
2023/12/31 00:21:27;;;;;;;3.20;1.80;;;;;;;;;;5047355;28;20025;-76
2023/12/31 00:23:53;;;;;;;1.75;1.00;;;;;;;;;;5047346;28;20371;-76
2023/12/31 00:26:18;;;;;;;2.28;1.30;;;;;;;;;;5047288;28;20040;-81
2023/12/31 00:28:43;;;;;;;3.08;1.40;;;;;;;;;;5048004;28;20036;-77
2023/12/31 00:31:09;;;;;;;2.35;1.38;;;;;;;;;;5051955;28;20143;-76
2023/12/31 00:33:34;;;;;;;2.47;1.40;;;;;;;;;;5056864;28;20762;-77
2023/12/31 00:36:00;;;;;;;2.30;1.13;;;;;;;;;;5055023;28;20143;-76
2023/12/31 00:38:26;;;;;;;3.13;1.60;;;;;;;;;;5046429;28;20037;-76
2023/12/31 00:40:52;;;;;;;3.17;1.52;;;;;;;;;;5042698;28;20044;-76
2023/12/31 00:43:18;;;;;;;1.85;1.33;;;;;;;;;;5042267;28;20596;-76
2023/12/31 00:45:43;;;;;;;2.33;1.40;;;;;;;;;;5046590;28;20029;-76
2023/12/31 00:48:09;;;;;;;3.25;1.42;;;;;;;;;;5046334;28;20028;-76
2023/12/31 00:50:34;;;;;;;3.20;1.50;;;;;;;;;;5046302;28;20037;-76
2023/12/31 00:53:01;;;;;;;4.82;1.45;;;;;;;;;;5046249;28;20291;-76
2023/12/31 00:55:26;;;;;;;2.53;1.23;;;;;;;;;;5028848;28;20086;-76
2023/12/31 00:57:51;;;;;;;3.85;1.75;;;;;;;;;;5026612;28;20045;-76
2023/12/31 01:00:17;;;;;;;3.83;1.40;;;;;;;;;;5026710;28;20056;-76
2023/12/31 01:02:42;;;;;;;3.83;1.73;;;;;;;;;;5024822;28;20060;-76
2023/12/31 01:05:08;;;;;;;1.50;1.13;;;;;;;;;;5026061;28;20069;-76
2023/12/31 01:07:33;;;;;;;2.35;1.40;;;;;;;;;;5024709;28;20065;-76
2023/12/31 01:09:59;;;;;;;3.88;1.48;;;;;;;;;;5025876;28;20036;-76
2023/12/31 01:12:24;;;;;;;11.18;1.77;;;;;;;;;;5025944;28;20025;-77
2023/12/31 01:14:49;;;;;;;1.73;1.05;;;;;;;;;;5027011;28;20049;-76
2023/12/31 01:17:15;;;;;;;1.85;1.25;;;;;;;;;;5025616;28;20131;-76
2023/12/31 01:19:41;;;;;;;3.08;1.55;;;;;;;;;;5025812;28;20037;-76
2023/12/31 01:22:06;;;;;;;1.52;1.00;;;;;;;;;;5037860;28;20033;-76
2023/12/31 01:24:31;;;;;;;2.50;1.60;;;;;;;;;;5045601;28;20036;-76
2023/12/31 01:26:57;;;;;;;4.82;1.75;;;;;;;;;;5043311;28;20094;-76
2023/12/31 01:29:23;;;;;;;2.95;1.15;;;;;;;;;;5044114;28;20067;-76
2023/12/31 01:31:49;;;;;;;1.83;1.35;;;;;;;;;;5043917;28;20564;-76
2023/12/31 01:34:14;;;;;;;1.52;1.25;;;;;;;;;;5039007;28;20066;-76
2023/12/31 01:36:39;;;;;;;2.78;1.65;;;;;;;;;;5045119;28;20080;-77
2023/12/31 01:39:07;;;;;;;2.53;1.63;;;;;;;;;;5046694;28;20075;-76
2023/12/31 01:41:32;;;;;;;3.03;1.20;;;;;;;;;;5044745;28;20037;-76
2023/12/31 01:44:03;;;;;;;2.00;1.48;;;;;;;;;;5046138;28;20044;-76
2023/12/31 01:46:30;;;;;;;2.45;1.48;;;;;;;;;;5046166;28;20041;-77
2023/12/31 01:48:56;;;;;;;3.78;1.50;;;;;;;;;;5048067;28;20048;-75
2023/12/31 01:51:26;;;;;;;2.35;1.50;;;;;;;;;;5056054;28;20036;-76
2023/12/31 01:53:52;;;;;;;3.13;1.67;;;;;;;;;;5063155;28;20509;-76
2023/12/31 01:56:19;;;;;;;4.32;1.63;;;;;;;;;;5052944;28;20060;-77
2023/12/31 01:58:46;;;;;;;2.42;1.40;;;;;;;;;;5046370;28;20061;-76
2023/12/31 02:01:12;;;;;;;3.20;2.00;;;;;;;;;;5046228;28;20541;-77
2023/12/31 02:03:37;;;;;;;4.00;1.75;;;;;;;;;;5043991;28;20061;-77
2023/12/31 02:06:02;;;;;;;1.98;1.38;;;;;;;;;;5045956;28;20025;-77
2023/12/31 02:08:28;;;;;;;2.42;1.60;;;;;;;;;;5044223;28;20531;-76
2023/12/31 02:10:54;;;;;;;1.90;1.20;;;;;;;;;;5039740;28;20422;-77
2023/12/31 02:13:19;;;;;;;2.45;1.35;;;;;;;;;;5023996;28;20042;-77
2023/12/31 02:15:45;;;;;;;1.27;1.13;;;;;;;;;;5025335;28;20025;-76
2023/12/31 02:18:10;;;;;;;2.42;1.50;;;;;;;;;;5041615;28;20072;-77
2023/12/31 02:20:35;;;;;;;1.35;1.17;;;;;;;;;;5044454;28;20465;-77
2023/12/31 02:23:01;;;;;;;12.07;1.58;;;;;;;;;;5044641;28;20044;-77
2023/12/31 02:25:29;;;;;;;4.28;1.92;;;;;;;;;;5044438;28;20029;-76
2023/12/31 02:27:55;;;;;;;3.97;0.98;;;;;;;;;;5042281;28;20025;-77
2023/12/31 02:30:22;;;;;;;4.65;1.48;;;;;;;;;;5045277;28;20029;-77
2023/12/31 02:32:48;;;;;;;3.03;1.40;;;;;;;;;;5043345;28;20196;-76
2023/12/31 02:35:13;;;;;;;6.50;4.18;;;;;;;;;;5044437;28;20116;-76
2023/12/31 02:37:39;;;;;;;2.25;1.25;;;;;;;;;;5044015;28;20720;-76
2023/12/31 02:40:05;;;;;;;2.90;1.35;;;;;;;;;;5043850;28;20041;-76
2023/12/31 02:42:31;;;;;;;2.88;1.55;;;;;;;;;;5043048;28;20429;-77
2023/12/31 02:44:56;;;;;;;2.67;1.67;;;;;;;;;;5044402;28;20059;-76
2023/12/31 02:47:22;;;;;;;2.72;1.35;;;;;;;;;;5044930;28;20129;-77
2023/12/31 02:49:47;;;;;;;2.22;1.25;;;;;;;;;;5042848;28;20044;-77
2023/12/31 02:52:14;;;;;;;2.45;1.10;;;;;;;;;;5043197;28;20413;-77
2023/12/31 02:54:39;;;;;;;2.83;1.63;;;;;;;;;;5044021;28;20032;-77
2023/12/31 02:57:07;;;;;;;3.50;1.30;;;;;;;;;;5043927;28;20024;-76
2023/12/31 02:59:33;;;;;;;1.77;1.30;;;;;;;;;;5043742;28;20552;-77
2023/12/31 03:01:59;;;;;;;1.15;0.98;;;;;;;;;;5042347;28;20049;-77
2023/12/31 03:04:24;;;;;;;2.15;1.58;;;;;;;;;;5043604;28;20037;-77
2023/12/31 03:06:51;;;;;;;2.15;1.27;;;;;;;;;;5045060;28;20040;-77
2023/12/31 03:09:18;;;;;;;4.57;1.33;;;;;;;;;;5050067;28;20050;-77
2023/12/31 03:11:44;;;;;;;3.20;1.98;;;;;;;;;;5054835;28;20044;-77
2023/12/31 03:14:10;;;;;;;3.50;2.03;;;;;;;;;;5050138;28;20037;-77
2023/12/31 03:16:35;;;;;;;3.25;1.33;;;;;;;;;;5042641;28;20504;-77
2023/12/31 03:19:00;;;;;;;3.42;1.73;;;;;;;;;;5041620;28;20044;-77
2023/12/31 03:21:26;;;;;;;3.03;1.48;;;;;;;;;;5042833;28;20090;-77
2023/12/31 03:23:51;;;;;;;1.77;1.55;;;;;;;;;;5043433;28;20017;-77
2023/12/31 03:26:16;;;;;;;3.63;1.73;;;;;;;;;;5043035;28;20637;-77
2023/12/31 03:28:42;;;;;;;3.50;2.17;;;;;;;;;;5041096;28;20052;-77
2023/12/31 03:31:09;;;;;;;2.00;1.25;;;;;;;;;;5042858;28;20575;-77
2023/12/31 03:33:35;;;;;;;3.22;1.65;;;;;;;;;;5043139;28;20086;-76
2023/12/31 03:36:00;;;;;;;4.30;2.13;;;;;;;;;;5042517;28;20048;-77
2023/12/31 03:38:25;;;;;;;2.63;1.55;;;;;;;;;;5040852;28;20462;-77
2023/12/31 03:40:51;;;;;;;3.65;1.73;;;;;;;;;;5043350;28;20493;-77
2023/12/31 03:43:16;;;;;;;4.55;2.40;;;;;;;;;;5042536;28;20134;-77
2023/12/31 03:45:41;;;;;;;2.97;2.00;;;;;;;;;;5041375;28;20044;-76
2023/12/31 03:48:07;;;;;;;2.42;1.38;;;;;;;;;;5041460;28;20044;-77
2023/12/31 03:50:32;;;;;;;2.40;1.83;;;;;;;;;;5041287;28;20039;-77
2023/12/31 03:52:57;;;;;;;4.40;1.90;;;;;;;;;;5040752;28;20044;-77
2023/12/31 03:55:23;;;;;;;5.50;2.13;;;;;;;;;;5041950;28;20052;-77
2023/12/31 03:57:49;;;;;;;3.15;1.52;;;;;;;;;;5040821;28;20597;-77
2023/12/31 04:00:16;;;;;;;2.05;1.80;;;;;;;;;;5043316;28;20036;-77
2023/12/31 04:02:41;;;;;;;4.40;2.00;;;;;;;;;;5041829;28;20037;-76
2023/12/31 04:05:07;;;;;;;2.70;1.75;;;;;;;;;;5042445;28;20059;-77
2023/12/31 04:07:33;;;;;;;9.18;2.38;;;;;;;;;;5042369;28;20041;-77
2023/12/31 04:09:58;;;;;;;1.48;1.13;;;;;;;;;;5042596;28;20036;-76
2023/12/31 04:12:23;;;;;;;2.15;1.40;;;;;;;;;;5042180;28;20110;-76
2023/12/31 04:14:49;;;;;;;2.40;1.60;;;;;;;;;;5042403;28;20120;-77
2023/12/31 04:17:14;;;;;;;3.88;2.33;;;;;;;;;;5042238;28;20075;-77
2023/12/31 04:19:40;;;;;;;4.05;1.92;;;;;;;;;;5042931;28;20052;-77
2023/12/31 04:22:05;;;;;;;3.92;2.15;;;;;;;;;;5042887;28;20116;-77
2023/12/31 04:24:30;;;;;;;5.05;1.73;;;;;;;;;;5043245;28;20669;-77
2023/12/31 04:26:57;;;;;;;3.75;1.77;;;;;;;;;;5044429;28;20897;-76
2023/12/31 04:29:22;;;;;;;1.65;1.13;;;;;;;;;;5053035;28;20036;-77
2023/12/31 04:31:48;;;;;;;3.65;2.25;;;;;;;;;;5059961;28;20043;-76
2023/12/31 04:34:14;;;;;;;2.83;1.88;;;;;;;;;;5050634;28;20154;-76
2023/12/31 04:36:45;;;;;;;2.72;1.52;;;;;;;;;;5043153;28;20583;-77
2023/12/31 04:39:12;;;;;;;3.60;2.00;;;;;;;;;;5043736;28;20029;-77
2023/12/31 04:41:37;;;;;;;2.70;1.83;;;;;;;;;;5040928;28;20402;-77
2023/12/31 04:44:03;;;;;;;2.60;1.63;;;;;;;;;;5041699;28;20580;-76
2023/12/31 04:46:28;;;;;;;1.98;1.70;;;;;;;;;;5042468;28;20075;-76
2023/12/31 04:48:54;;;;;;;3.08;1.60;;;;;;;;;;5042032;28;20029;-76
2023/12/31 04:51:25;;;;;;;2.33;1.55;;;;;;;;;;5042101;28;20033;-76
2023/12/31 04:53:52;;;;;;;2.92;1.73;;;;;;;;;;5042000;28;20754;-76
2023/12/31 04:56:19;;;;;;;2.70;1.60;;;;;;;;;;5041686;28;20037;-76
2023/12/31 04:58:46;;;;;;;3.10;1.65;;;;;;;;;;5041680;28;20045;-76
2023/12/31 05:01:11;;;;;;;2.45;1.73;;;;;;;;;;5045584;28;20110;-76
2023/12/31 05:03:36;;;;;;;2.17;1.65;;;;;;;;;;5045421;28;20029;-76
2023/12/31 05:06:02;;;;;;;3.10;1.98;;;;;;;;;;5044682;28;20031;-77
2023/12/31 05:08:27;;;;;;;2.42;1.50;;;;;;;;;;5045693;28;20469;-77
2023/12/31 05:10:53;;;;;;;4.07;2.00;;;;;;;;;;5045530;28;20159;-77
2023/12/31 05:13:19;;;;;;;3.08;2.00;;;;;;;;;;5045274;28;20043;-77
2023/12/31 05:15:44;;;;;;;1.83;1.33;;;;;;;;;;5037535;28;20071;-77
2023/12/31 05:18:10;;;;;;;2.35;1.70;;;;;;;;;;5045668;28;20043;-77
2023/12/31 05:20:35;;;;;;;3.58;1.67;;;;;;;;;;5044938;28;20043;-77
2023/12/31 05:23:00;;;;;;;3.20;1.90;;;;;;;;;;5029219;28;20037;-76
2023/12/31 05:25:26;;;;;;;2.22;1.45;;;;;;;;;;5044741;28;20033;-77
2023/12/31 05:27:51;;;;;;;2.78;1.40;;;;;;;;;;5044521;28;20037;-77
2023/12/31 05:30:16;;;;;;;3.10;1.75;;;;;;;;;;5045763;28;20032;-77
2023/12/31 05:32:42;;;;;;;2.85;1.67;;;;;;;;;;5044383;28;20037;-77
2023/12/31 05:35:07;;;;;;;2.72;1.48;;;;;;;;;;5044941;28;20476;-77
2023/12/31 05:37:32;;;;;;;6.63;1.77;;;;;;;;;;5044416;28;20048;-76
2023/12/31 05:39:58;;;;;;;1.63;1.38;;;;;;;;;;5044830;28;20057;-77
2023/12/31 05:42:23;;;;;;;4.57;1.65;;;;;;;;;;5045197;28;20547;-76
2023/12/31 05:44:49;;;;;;;3.20;1.70;;;;;;;;;;5045423;28;20025;-77
2023/12/31 05:47:15;;;;;;;2.65;1.75;;;;;;;;;;5050860;28;20044;-76
2023/12/31 05:49:40;;;;;;;2.88;1.70;;;;;;;;;;5055586;28;20036;-77
2023/12/31 05:52:08;;;;;;;2.17;1.58;;;;;;;;;;5052384;28;20041;-77
2023/12/31 05:54:37;;;;;;;2.60;1.40;;;;;;;;;;5043011;28;20120;-77
2023/12/31 05:57:03;;;;;;;2.72;1.80;;;;;;;;;;5044903;28;20867;-77
2023/12/31 05:59:28;;;;;;;3.30;1.90;;;;;;;;;;5044705;28;20040;-76
2023/12/31 06:01:53;;;;;;;2.53;1.90;;;;;;;;;;5042911;28;20068;-77
2023/12/31 06:04:19;;;;;;;3.50;1.77;;;;;;;;;;5045087;28;20067;-77
2023/12/31 06:06:44;;;;;;;1.80;1.65;;;;;;;;;;5048997;28;20057;-77
2023/12/31 06:09:09;;;;;;;3.33;1.60;;;;;;;;;;5042897;28;20032;-77
2023/12/31 06:11:35;;;;;;;2.47;1.40;;;;;;;;;;5042091;28;20040;-77
2023/12/31 06:14:02;;;;;;;1.75;1.35;;;;;;;;;;5043613;28;20039;-77
2023/12/31 06:16:28;;;;;;;2.97;1.85;;;;;;;;;;5042921;28;20060;-77
2023/12/31 06:18:53;;;;;;;2.85;1.50;;;;;;;;;;5044026;28;20115;-77
2023/12/31 06:21:19;;;;;;;2.60;1.80;;;;;;;;;;5044345;28;20021;-76
2023/12/31 06:23:44;;;;;;;2.28;1.55;;;;;;;;;;5041686;28;20033;-77
2023/12/31 06:26:09;;;;;;;3.13;1.38;;;;;;;;;;5043069;28;20433;-77
2023/12/31 06:28:35;;;;;;;1.85;1.50;;;;;;;;;;5027846;28;20035;-77
2023/12/31 06:31:00;;;;;;;2.15;1.20;;;;;;;;;;5024600;28;20033;-76
2023/12/31 06:33:26;;;;;;;2.60;1.52;;;;;;;;;;5023296;28;20403;-76
2023/12/31 06:35:52;;;;;;;3.25;1.52;;;;;;;;;;5023810;28;20049;-76
2023/12/31 06:38:17;;;;;;;2.17;1.35;;;;;;;;;;5037827;28;20040;-77
2023/12/31 06:40:42;;;;;;;3.13;1.50;;;;;;;;;;5041694;28;20556;-77
2023/12/31 06:43:08;;;;;;;1.85;1.20;;;;;;;;;;5022228;28;20040;-77
2023/12/31 06:45:33;;;;;;;3.47;2.00;;;;;;;;;;5022386;28;20037;-77
2023/12/31 06:47:59;;;;;;;2.28;1.50;;;;;;;;;;5024320;28;20013;-77
2023/12/31 06:50:24;;;;;;;2.30;1.48;;;;;;;;;;5024087;28;20067;-77
2023/12/31 06:52:50;;;;;;;3.05;1.38;;;;;;;;;;5021896;28;20038;-76
2023/12/31 06:55:15;;;;;;;2.03;1.30;;;;;;;;;;5024023;28;20113;-77
2023/12/31 06:57:41;;;;;;;2.15;1.38;;;;;;;;;;5025208;28;20037;-77
2023/12/31 07:00:08;;;;;;;2.20;1.30;;;;;;;;;;5042095;28;20452;-77
2023/12/31 07:02:33;;;;;;;1.48;1.30;;;;;;;;;;5043101;28;20040;-77
2023/12/31 07:04:59;;;;;;;2.20;1.13;;;;;;;;;;5046611;28;20025;-77
2023/12/31 07:07:24;;;;;;;1.30;1.10;;;;;;;;;;5054989;28;20029;-77
2023/12/31 07:09:49;;;;;;;2.95;1.42;;;;;;;;;;5059839;28;20033;-76
2023/12/31 07:12:15;;;;;;;2.72;1.30;;;;;;;;;;5051502;28;20056;-77
2023/12/31 07:14:40;;;;;;;2.38;1.13;;;;;;;;;;5045399;28;20043;-77
2023/12/31 07:17:06;;;;;;;1.65;1.20;;;;;;;;;;5041821;28;20036;-77
2023/12/31 07:19:31;;;;;;;2.35;1.17;;;;;;;;;;5043452;28;20083;-77
2023/12/31 07:21:56;;;;;;;1.33;1.20;;;;;;;;;;5043080;28;20035;-76
2023/12/31 07:24:22;;;;;;;2.78;1.35;;;;;;;;;;5042978;28;20751;-76
2023/12/31 07:26:47;;;;;;;2.90;1.45;;;;;;;;;;5043396;28;20021;-77
2023/12/31 07:29:13;;;;;;;2.28;1.25;;;;;;;;;;5042864;28;20632;-77
2023/12/31 07:31:38;;;;;;;3.45;1.42;;;;;;;;;;5041300;28;20033;-77
2023/12/31 07:34:05;;;;;;;6.38;1.70;;;;;;;;;;5041661;28;20044;-77
2023/12/31 07:36:30;;;;;;;2.75;1.50;;;;;;;;;;5041647;28;20702;-77
2023/12/31 07:38:56;;;;;;;2.20;1.30;;;;;;;;;;5043421;28;20535;-77
2023/12/31 07:41:21;;;;;;;3.13;1.30;;;;;;;;;;5047878;28;20436;-76
2023/12/31 07:43:46;;;;;;;1.45;1.05;;;;;;;;;;5062218;28;20024;-76
2023/12/31 07:46:13;;;;;;;1.33;0.90;;;;;;;;;;5062378;28;20040;-76
2023/12/31 07:48:39;;;;;;;2.47;0.90;;;;;;;;;;5063618;28;20058;-76
2023/12/31 07:51:06;;;;;;;2.17;1.10;;;;;;;;;;5062199;28;20028;-76
2023/12/31 07:53:32;;;;;;;1.83;1.15;;;;;;;;;;5063623;28;20040;-75
2023/12/31 07:55:58;;;;;;;3.10;1.17;;;;;;;;;;5061813;28;20044;-76
2023/12/31 07:58:27;;;;;;;2.28;0.98;;;;;;;;;;5047060;28;20736;-76
2023/12/31 08:00:52;;;;;;;3.00;1.17;;;;;;;;;;5023408;28;20560;-76
2023/12/31 08:03:18;;;;;;;2.00;1.15;;;;;;;;;;5023069;28;20041;-76
2023/12/31 08:05:43;;;;;;;5.78;2.35;;;;;;;;;;5023469;28;20046;-76
2023/12/31 08:08:11;;;;;;;5.88;2.13;;;;;;;;;;5023493;28;20033;-76
2023/12/31 08:10:40;;;;;;;25.75;6.50;;;;;;;;;;5037590;28;20037;-76
2023/12/31 08:13:06;;;;;;;14.40;4.00;;;;;;;;;;5023359;28;20047;-77
2023/12/31 08:15:32;;;;;;;13.70;3.83;;;;;;;;;;5023715;28;20982;-77
2023/12/31 08:17:57;;;;;;;9.40;2.80;;;;;;;;;;5024159;28;20025;-76
2023/12/31 08:20:23;;;;;;;5.75;2.42;;;;;;;;;;5038889;28;20087;-77
2023/12/31 08:22:52;;;;;;;16.10;6.18;;;;;;;;;;5024745;28;20044;-77
2023/12/31 08:25:18;;;;;;;4.57;1.70;;;;;;;;;;5045339;28;20134;-77
2023/12/31 08:27:43;;;;;;;14.70;3.70;;;;;;;;;;5050053;28;20569;-77
2023/12/31 08:30:09;;;;;;;7.80;2.80;;;;;;;;;;5041820;28;20048;-77
2023/12/31 08:32:34;;;;;;;2.13;0.68;;;;;;;;;;5037335;28;20037;-76
2023/12/31 08:35:00;;;;;;;5.97;1.38;;;;;;;;;;5045704;28;20041;-76
2023/12/31 08:37:25;;;;;;;7.50;2.00;;;;;;;;;;5044600;28;20075;-76
2023/12/31 08:39:51;;;;;;;7.05;2.35;;;;;;;;;;5031816;28;20041;-76
2023/12/31 08:42:16;;;;;;;6.25;2.17;;;;;;;;;;5027094;28;20136;-76
2023/12/31 08:44:42;;;;;;;7.60;2.47;;;;;;;;;;5025620;28;20033;-76
2023/12/31 08:47:07;;;;;;;2.80;1.20;;;;;;;;;;5026852;28;20034;-76
2023/12/31 08:49:32;;;;;;;4.57;1.10;;;;;;;;;;5030314;28;20090;-76
2023/12/31 08:51:58;;;;;;;1.13;0.60;;;;;;;;;;5031447;28;20038;-76
2023/12/31 08:54:23;;;;;;;3.53;0.88;;;;;;;;;;5039286;28;21049;-76
2023/12/31 08:56:48;;;;;;;1.80;0.70;;;;;;;;;;5044339;28;20029;-76
2023/12/31 08:59:14;;;;;;;2.45;0.90;;;;;;;;;;5048828;28;20127;-76
2023/12/31 09:01:39;;;;;;;3.65;0.90;;;;;;;;;;5055389;28;20541;-75
2023/12/31 09:04:06;;;;;;;3.00;0.65;;;;;;;;;;5037634;28;20042;-75
2023/12/31 09:06:32;;;;;;;2.97;0.80;;;;;;;;;;5031821;28;20036;-74
2023/12/31 09:08:57;;;;;;;1.50;0.85;;;;;;;;;;5034752;28;20025;-75
2023/12/31 09:11:23;;;;;;;2.67;1.08;;;;;;;;;;5035043;28;20059;-74
2023/12/31 09:13:48;;;;;;;2.72;0.80;;;;;;;;;;5038829;28;20038;-74
2023/12/31 09:16:13;;;;;;;2.70;0.80;;;;;;;;;;5033382;28;20635;-74
2023/12/31 09:18:39;;;;;;;3.67;0.75;;;;;;;;;;5032228;28;20533;-74
2023/12/31 09:21:04;;;;;;;0.75;0.63;;;;;;;;;;5034817;28;20025;-74
2023/12/31 09:23:29;;;;;;;2.85;0.95;;;;;;;;;;5035712;28;20037;-76
2023/12/31 09:25:55;;;;;;;1.58;0.80;;;;;;;;;;5035179;28;20052;-75
2023/12/31 09:28:20;;;;;;;5.88;0.93;;;;;;;;;;5034255;28;20052;-77
2023/12/31 09:30:46;;;;;;;1.35;0.50;;;;;;;;;;5039377;28;20514;-77
2023/12/31 09:33:12;;;;;;;5.95;1.77;;;;;;;;;;5035270;28;20032;-76
2023/12/31 09:35:38;;;;;;;3.70;1.02;;;;;;;;;;5040847;28;20029;-76
2023/12/31 09:38:03;;;;;;;0.45;0.45;;;;;;;;;;5030983;28;20045;-76
2023/12/31 09:40:29;;;;;;;1.73;0.98;;;;;;;;;;5041426;28;20089;-76
2023/12/31 09:42:54;;;;;;;2.28;0.60;;;;;;;;;;5040530;28;20120;-76
2023/12/31 09:45:26;;;;;;;2.38;0.57;;;;;;;;;;5043544;28;20033;-76
2023/12/31 09:47:54;;;;;;;1.58;0.50;;;;;;;;;;5060470;28;20047;-76
2023/12/31 09:50:21;;;;;;;3.38;0.82;;;;;;;;;;5047152;28;20532;-76
2023/12/31 09:52:48;;;;;;;0.45;0.35;;;;;;;;;;5046685;28;20041;-76
2023/12/31 09:55:21;;;;;;;2.80;0.80;;;;;;;;;;5044659;28;20079;-76
2023/12/31 09:57:47;;;;;;;1.30;0.43;;;;;;;;;;5037123;28;20040;-77
2023/12/31 10:00:13;;;;;;;1.33;0.60;;;;;;;;;;5024336;28;20025;-76
2023/12/31 10:02:38;;;;;;;3.83;0.50;;;;;;;;;;5033090;28;20036;-77
2023/12/31 10:05:05;;;;;;;5.35;0.70;;;;;;;;;;5043198;28;20052;-77
2023/12/31 10:07:31;;;;;;;3.80;0.90;;;;;;;;;;5042549;28;20041;-76
2023/12/31 10:09:57;;;;;;;1.05;0.60;;;;;;;;;;5042689;28;20029;-76
2023/12/31 10:12:23;;;;;;;5.80;0.80;;;;;;;;;;5041696;28;20446;-74
2023/12/31 10:14:50;;;;;;;3.65;1.00;;;;;;;;;;5035813;28;20044;-74
2023/12/31 10:17:15;;;;;;;2.63;0.77;;;;;;;;;;5022863;28;20029;-74
2023/12/31 10:19:41;;;;;;;1.52;0.90;;;;;;;;;;5023263;28;20040;-75
2023/12/31 10:22:07;;;;;;;0.52;0.50;;;;;;;;;;5038011;28;20562;-75
2023/12/31 10:24:33;;;;;;;2.72;1.33;;;;;;;;;;5024073;28;20025;-76
2023/12/31 10:27:03;;;;;;;2.10;0.60;;;;;;;;;;5042515;28;20813;-76
2023/12/31 10:29:28;;;;;;;1.42;0.60;;;;;;;;;;5043063;28;20044;-75
2023/12/31 10:31:54;;;;;;;2.00;0.90;;;;;;;;;;5044288;28;20108;-75
2023/12/31 10:34:20;;;;;;;3.95;1.10;;;;;;;;;;5044167;28;20159;-75
2023/12/31 10:36:46;;;;;;;0.85;0.50;;;;;;;;;;5041212;28;20063;-75
2023/12/31 10:39:28;;;;;;;1.75;0.60;;;;;;;;;;5060402;28;20024;-75
2023/12/31 10:41:59;;;;;;;0.88;0.60;;;;;;;;;;5056920;28;20036;-75
2023/12/31 10:44:26;;;;;;;1.30;0.65;;;;;;;;;;5039877;28;20037;-74
2023/12/31 10:47:00;;;;;;;0.60;0.50;;;;;;;;;;5046049;28;20040;-73
2023/12/31 10:49:29;;;;;;;1.98;0.70;;;;;;;;;;5032125;28;20037;-74
2023/12/31 10:51:55;;;;;;;2.45;0.50;;;;;;;;;;5023370;28;20533;-74
2023/12/31 10:54:30;;;;;;;3.00;0.68;;;;;;;;;;5032682;28;20025;-75
2023/12/31 10:56:57;;;;;;;0.85;0.43;;;;;;;;;;5042125;28;20064;-74
2023/12/31 10:59:25;;;;;;;1.55;0.60;;;;;;;;;;5042842;28;20052;-75
2023/12/31 11:01:52;;;;;;;0.88;0.50;;;;;;;;;;5047971;28;20037;-74
2023/12/31 11:04:21;;;;;;;0.85;0.50;;;;;;;;;;5049578;28;20055;-75
2023/12/31 11:06:47;;;;;;;3.72;0.68;;;;;;;;;;5041384;28;20033;-74
2023/12/31 11:09:14;;;;;;;1.05;0.52;;;;;;;;;;5041562;28;20035;-75
2023/12/31 11:11:41;;;;;;;6.90;1.40;;;;;;;;;;5042313;28;20116;-75
2023/12/31 11:14:09;;;;;;;3.20;0.90;;;;;;;;;;5040763;28;20533;-78
2023/12/31 11:16:51;;;;;;;1.38;0.70;;;;;;;;;;5042147;28;20041;-75
2023/12/31 11:19:28;;;;;;;4.57;0.82;;;;;;;;;;5025947;28;20037;-77
2023/12/31 11:22:09;;;;;;;2.63;0.70;;;;;;;;;;5030392;28;20090;-74
2023/12/31 11:24:35;;;;;;;2.53;0.77;;;;;;;;;;5020944;28;20139;-74
2023/12/31 11:27:15;;;;;;;4.15;0.70;;;;;;;;;;5022836;28;20495;-74
2023/12/31 11:29:43;;;;;;;5.22;1.00;;;;;;;;;;5022119;28;20410;-73
2023/12/31 11:32:08;;;;;;;4.07;1.15;;;;;;;;;;5020907;28;20037;-73
2023/12/31 11:34:38;;;;;;;3.25;0.70;;;;;;;;;;5022079;28;20077;-74
2023/12/31 11:37:06;;;;;;;3.38;1.10;;;;;;;;;;5025499;28;20048;-74
2023/12/31 11:39:32;;;;;;;5.63;1.10;;;;;;;;;;5040717;28;20037;-73
2023/12/31 11:42:18;;;;;;;6.15;0.90;;;;;;;;;;5042098;28;20031;-74
2023/12/31 11:44:43;;;;;;;2.72;0.80;;;;;;;;;;5041980;28;20037;-73
2023/12/31 11:47:25;;;;;;;3.30;1.00;;;;;;;;;;5040662;28;20055;-74
2023/12/31 11:49:52;;;;;;;2.95;1.20;;;;;;;;;;5041830;28;20529;-73
2023/12/31 11:52:21;;;;;;;5.55;1.27;;;;;;;;;;5041754;28;20486;-73
2023/12/31 11:54:47;;;;;;;5.82;1.15;;;;;;;;;;5041515;28;20071;-73
2023/12/31 11:57:16;;;;;;;3.92;0.90;;;;;;;;;;5041947;28;20466;-74
2023/12/31 11:59:44;;;;;;;3.75;0.98;;;;;;;;;;5037830;28;20037;-73
2023/12/31 12:02:09;;;;;;;6.55;1.00;;;;;;;;;;5041838;28;20051;-73
2023/12/31 12:04:38;;;;;;;3.97;0.98;;;;;;;;;;5033595;28;20032;-73
2023/12/31 12:07:04;;;;;;;5.43;1.23;;;;;;;;;;5032924;28;20160;-73
2023/12/31 12:09:31;;;;;;;5.47;0.95;;;;;;;;;;5030228;28;20053;-74
2023/12/31 12:12:04;;;;;;;9.85;1.27;;;;;;;;;;5041490;28;20028;-73
2023/12/31 12:14:30;;;;;;;6.65;1.05;;;;;;;;;;5034977;28;20022;-74
2023/12/31 12:16:56;;;;;;;5.47;0.95;;;;;;;;;;5035446;28;20969;-74
2023/12/31 12:19:28;;;;;;;5.43;1.50;;;;;;;;;;5028509;28;20064;-74
2023/12/31 12:21:53;;;;;;;5.05;1.00;;;;;;;;;;5032833;28;20033;-74
2023/12/31 12:24:19;;;;;;;4.18;1.38;;;;;;;;;;5028139;28;20018;-74
2023/12/31 12:26:49;;;;;;;6.75;1.17;;;;;;;;;;5022936;28;20529;-74
2023/12/31 12:29:16;;;;;;;7.35;1.02;;;;;;;;;;5022317;28;20068;-74
2023/12/31 12:31:45;;;;;;;9.63;1.05;;;;;;;;;;5024131;28;20034;-74
2023/12/31 12:34:12;;;;;;;6.88;0.98;;;;;;;;;;5031655;28;20044;-75
2023/12/31 12:36:38;;;;;;;5.95;1.10;;;;;;;;;;5038678;28;20052;-74
2023/12/31 12:39:05;;;;;;;8.82;1.70;;;;;;;;;;5020938;28;20025;-75
2023/12/31 12:41:34;;;;;;;6.50;1.30;;;;;;;;;;5021756;28;20033;-74
2023/12/31 12:44:07;;;;;;;6.95;1.27;;;;;;;;;;5021669;28;20038;-75
2023/12/31 12:46:33;;;;;;;;;;;;;;;;;;5021285;28;20142;-74
2023/12/31 12:48:59;;;;;;;7.75;1.38;;;;;;;;;;5019960;28;20401;-74
2023/12/31 12:51:25;;;;;;;10.43;1.20;;;;;;;;;;5021532;28;20030;-74
2023/12/31 12:53:51;;;;;;;4.97;1.00;;;;;;;;;;5027418;28;20380;-74
2023/12/31 12:56:17;;;;;;;6.55;1.30;;;;;;;;;;5039949;28;20096;-74
2023/12/31 12:58:42;;;;;;;7.43;1.38;;;;;;;;;;5041295;28;20037;-73
2023/12/31 13:01:08;;;;;;;5.80;1.40;;;;;;;;;;5041032;28;20075;-73
2023/12/31 13:03:33;;;;;;;5.25;1.20;;;;;;;;;;5040790;28;20025;-73
2023/12/31 13:05:59;;;;;;;10.63;2.13;;;;;;;;;;5041346;28;20024;-74
2023/12/31 13:08:25;;;;;;;9.63;1.60;;;;;;;;;;5040186;28;20037;-74
2023/12/31 13:10:51;;;;;;;9.85;1.70;;;;;;;;;;5039882;28;20461;-75
2023/12/31 13:13:16;;;;;;;13.10;1.33;;;;;;;;;;5040985;28;20037;-74
2023/12/31 13:15:42;;;;;;;10.73;1.60;;;;;;;;;;5041152;28;20056;-73
2023/12/31 13:18:08;;;;;;;6.40;1.00;;;;;;;;;;5039453;28;20467;-74
2023/12/31 13:20:35;;;;;;;13.10;1.70;;;;;;;;;;5044038;28;20037;-74
2023/12/31 13:23:00;;;;;;;5.38;1.10;;;;;;;;;;5042378;28;20418;-76
2023/12/31 13:25:26;;;;;;;8.48;1.30;;;;;;;;;;5044493;28;20038;-74
2023/12/31 13:27:52;;;;;;;13.02;1.95;;;;;;;;;;5044058;28;20472;-74
2023/12/31 13:30:17;;;;;;;8.32;2.08;;;;;;;;;;5044714;28;20111;-74
2023/12/31 13:32:44;;;;;;;8.40;1.42;;;;;;;;;;5052723;28;20086;-74
2023/12/31 13:35:09;;;;;;;7.97;1.63;;;;;;;;;;5034861;28;20050;-75
2023/12/31 13:37:34;;;;;;;7.63;1.88;;;;;;;;;;5041227;28;20045;-74
2023/12/31 13:40:00;;;;;;;10.73;1.75;;;;;;;;;;5033427;28;20037;-74
2023/12/31 13:42:26;;;;;;;5.57;1.42;;;;;;;;;;5024302;28;20033;-74
2023/12/31 13:44:52;;;;;;;3.40;1.25;;;;;;;;;;5024381;28;20049;-75
2023/12/31 13:47:17;;;;;;;4.35;1.52;;;;;;;;;;5023685;28;20076;-74
2023/12/31 13:49:42;;;;;;;9.48;2.03;;;;;;;;;;5023710;28;20036;-74
2023/12/31 13:52:08;;;;;;;8.30;1.13;;;;;;;;;;5022634;28;20030;-74
2023/12/31 13:54:33;;;;;;;7.40;1.35;;;;;;;;;;5032981;28;20513;-74
2023/12/31 13:56:58;;;;;;;16.33;1.73;;;;;;;;;;5043746;28;20039;-74
2023/12/31 13:59:24;;;;;;;10.85;2.40;;;;;;;;;;5042526;28;20049;-75
2023/12/31 14:01:49;;;;;;;14.50;2.40;;;;;;;;;;5039098;28;20538;-74
2023/12/31 14:04:15;;;;;;;13.07;2.00;;;;;;;;;;5043738;28;20056;-74
2023/12/31 14:06:44;;;;;;;11.63;1.48;;;;;;;;;;5042132;28;20024;-74
2023/12/31 14:09:09;;;;;;;9.98;1.92;;;;;;;;;;5043880;28;20122;-74
2023/12/31 14:11:36;;;;;;;10.25;1.65;;;;;;;;;;5043720;28;20422;-74
2023/12/31 14:14:02;;;;;;;17.10;1.90;;;;;;;;;;5041766;28;20064;-75
2023/12/31 14:16:27;;;;;;;9.32;1.50;;;;;;;;;;5043310;28;20067;-74
2023/12/31 14:18:52;;;;;;;9.60;1.70;;;;;;;;;;5043891;28;20036;-75
2023/12/31 14:21:18;;;;;;;9.68;1.55;;;;;;;;;;5043538;28;20124;-74
2023/12/31 14:23:44;;;;;;;5.97;1.27;;;;;;;;;;5041410;28;20036;-74
2023/12/31 14:26:09;;;;;;;27.85;2.38;;;;;;;;;;5043202;28;20037;-75
2023/12/31 14:28:35;;;;;;;9.18;1.27;;;;;;;;;;5041354;28;20103;-74
2023/12/31 14:31:00;;;;;;;10.05;1.45;;;;;;;;;;5042259;28;20033;-75
2023/12/31 14:33:26;;;;;;;6.97;1.55;;;;;;;;;;5040535;28;20420;-75
2023/12/31 14:35:51;;;;;;;7.28;1.60;;;;;;;;;;5041480;28;20108;-75
2023/12/31 14:38:17;;;;;;;6.47;1.23;;;;;;;;;;5041238;28;20037;-74